Time,TemperatureF,DewpointF,PressureIn,WindDirection,WindDirectionDegrees,WindSpeedMPH,WindSpeedGustMPH,Humidity,HourlyPrecipIn,Conditions,Clouds,dailyrainin,SoftwareType,DateUTC
2013-11-27 00:03:00,33.7,33.2,30.02,ENE,68,3.0,6.0,98,0.01,RA,,0.00,WeatherDisplay:10.37,2013-11-27 05:03:00,
2013-11-27 00:13:00,33.8,33.3,30.02,ENE,72,3.0,5.0,98,0.01,RA,,0.01,WeatherDisplay:10.37,2013-11-27 05:13:00,
2013-11-27 00:23:00,34.0,33.5,30.01,NE,53,3.0,6.0,98,0.01,RA,,0.02,WeatherDisplay:10.37,2013-11-27 05:23:00,
2013-11-27 00:33:00,34.0,33.5,30.00,ENE,68,3.0,6.0,98,0.02,RA,,0.04,WeatherDisplay:10.37,2013-11-27 05:33:00,
2013-11-27 00:43:00,34.1,33.6,30.00,ENE,72,3.0,5.0,98,0.02,RA,,0.06,WeatherDisplay:10.37,2013-11-27 05:43:00,
2013-11-27 00:53:00,34.1,33.6,29.98,East,80,3.0,6.0,98,0.02,RA,,0.08,WeatherDisplay:10.37,2013-11-27 05:53:00,
2013-11-27 01:03:00,34.3,33.8,29.96,ENE,62,5.0,7.0,98,0.02,RA,,0.10,WeatherDisplay:10.37,2013-11-27 06:03:00,
2013-11-27 01:13:00,34.3,33.8,29.96,ENE,68,3.0,7.0,98,0.02,RA,,0.12,WeatherDisplay:10.37,2013-11-27 06:13:00,
2013-11-27 01:23:00,34.1,33.6,29.93,ENE,76,6.0,9.0,98,0.01,RA,,0.13,WeatherDisplay:10.37,2013-11-27 06:23:00,
2013-11-27 01:33:00,34.4,33.9,29.92,ENE,73,3.0,9.0,98,0.00,,,0.13,WeatherDisplay:10.37,2013-11-27 06:33:00,
2013-11-27 01:43:00,34.7,34.2,29.92,East,87,3.0,7.0,98,0.01,RA,,0.14,WeatherDisplay:10.37,2013-11-27 06:43:00,
2013-11-27 01:53:00,34.7,34.2,29.91,NE,55,3.0,6.0,98,0.00,,,0.14,WeatherDisplay:10.37,2013-11-27 06:53:00,
2013-11-27 02:03:00,34.8,34.3,29.89,ENE,64,3.0,7.0,98,0.01,-RA,,0.15,WeatherDisplay:10.37,2013-11-27 07:03:00,
2013-11-27 02:13:00,35.1,34.8,29.89,ENE,73,3.0,6.0,99,0.01,-RA,,0.16,WeatherDisplay:10.37,2013-11-27 07:13:00,
2013-11-27 02:23:00,35.4,35.1,29.87,ENE,67,6.0,12.0,99,0.00,-RA,,0.16,WeatherDisplay:10.37,2013-11-27 07:23:00,
2013-11-27 02:33:00,35.7,35.5,29.84,ENE,63,5.0,12.0,99,0.01,-RA,,0.17,WeatherDisplay:10.37,2013-11-27 07:33:00,
2013-11-27 02:43:00,36.7,36.4,29.84,ENE,61,5.0,11.0,99,0.01,-RA,,0.18,WeatherDisplay:10.37,2013-11-27 07:43:00,
2013-11-27 02:53:00,37.3,37.0,29.81,ENE,62,3.0,11.0,99,0.02,-RA,,0.20,WeatherDisplay:10.37,2013-11-27 07:53:00,
2013-11-27 03:03:00,37.0,36.7,29.80,ENE,71,3.0,11.0,99,0.01,-RA,,0.21,WeatherDisplay:10.37,2013-11-27 08:03:00,
2013-11-27 03:13:00,36.8,36.5,29.80,NE,55,2.0,11.0,99,0.01,-RA,,0.22,WeatherDisplay:10.37,2013-11-27 08:13:00,
2013-11-27 03:23:00,37.1,36.9,29.78,ENE,60,5.0,11.0,99,0.02,-RA,,0.24,WeatherDisplay:10.37,2013-11-27 08:23:00,
2013-11-27 03:33:00,38.0,37.7,29.75,ENE,78,3.0,11.0,99,0.03,-RA,,0.27,WeatherDisplay:10.37,2013-11-27 08:33:00,
2013-11-27 03:43:00,38.4,38.1,29.75,East,90,5.0,11.0,99,0.02,-RA,,0.29,WeatherDisplay:10.37,2013-11-27 08:43:00,
2013-11-27 03:53:00,38.9,38.6,29.73,East,92,3.0,11.0,99,0.02,-RA,,0.31,WeatherDisplay:10.37,2013-11-27 08:53:00,
2013-11-27 04:03:00,39.4,39.1,29.70,East,99,2.0,11.0,99,0.01,RA,,0.32,WeatherDisplay:10.37,2013-11-27 09:03:00,
2013-11-27 04:13:00,40.7,40.5,29.70,ESE,114,3.0,11.0,99,0.02,RA,,0.34,WeatherDisplay:10.37,2013-11-27 09:13:00,
2013-11-27 04:23:00,43.1,42.9,29.67,SE,132,5.0,12.0,99,0.02,RA,,0.36,WeatherDisplay:10.37,2013-11-27 09:23:00,
2013-11-27 04:33:00,46.5,46.3,29.65,SE,127,7.0,17.0,99,0.02,RA,,0.38,WeatherDisplay:10.37,2013-11-27 09:33:00,
2013-11-27 04:43:00,49.3,49.3,29.65,SE,137,8.0,21.0,100,0.04,RA,,0.42,WeatherDisplay:10.37,2013-11-27 09:43:00,
2013-11-27 04:53:00,51.1,51.1,29.63,SE,129,8.0,21.0,100,0.03,RA,,0.45,WeatherDisplay:10.37,2013-11-27 09:53:00,
2013-11-27 05:03:00,51.7,51.7,29.61,SE,131,8.0,28.0,100,0.03, +RA,,0.48,WeatherDisplay:10.37,2013-11-27 10:03:00,
2013-11-27 05:13:00,52.0,52.0,29.61,SE,136,10.0,22.0,100,0.04,RA,,0.52,WeatherDisplay:10.37,2013-11-27 10:13:00,
2013-11-27 05:23:00,52.1,52.1,29.58,ESE,119,5.0,20.0,100,0.02,RA,,0.54,WeatherDisplay:10.37,2013-11-27 10:23:00,
2013-11-27 05:33:00,52.3,52.3,29.56,SE,129,8.0,18.0,100,0.01, +RA,,0.55,WeatherDisplay:10.37,2013-11-27 10:33:00,
2013-11-27 05:43:00,52.7,52.7,29.56,SSE,156,7.0,21.0,100,0.02, +RA,,0.57,WeatherDisplay:10.37,2013-11-27 10:43:00,
2013-11-27 05:53:00,53.6,53.6,29.53,SE,133,9.0,22.0,100,0.03, +RA,,0.60,WeatherDisplay:10.37,2013-11-27 10:53:00,
2013-11-27 06:03:00,53.8,53.8,29.51,SE,142,10.0,25.0,100,0.04, +RA,,0.64,WeatherDisplay:10.37,2013-11-27 11:03:00,
2013-11-27 06:13:00,53.9,53.9,29.51,SSE,151,7.0,23.0,100,0.02, +RA,,0.66,WeatherDisplay:10.37,2013-11-27 11:13:00,
2013-11-27 06:23:00,54.1,53.8,29.49,SSE,149,5.0,20.0,99,0.03, +RA,,0.69,WeatherDisplay:10.37,2013-11-27 11:23:00,
2013-11-27 06:33:00,54.2,53.9,29.49,South,175,7.0,21.0,99,0.02, +RA,,0.71,WeatherDisplay:10.37,2013-11-27 11:33:00,
2013-11-27 06:43:00,55.0,54.7,29.49,South,188,7.0,22.0,99,0.02, +RA,,0.73,WeatherDisplay:10.37,2013-11-27 11:43:00,
2013-11-27 06:53:00,55.4,55.1,29.47,South,170,6.0,12.0,99,0.01, +RA,,0.74,WeatherDisplay:10.37,2013-11-27 11:53:00,
2013-11-27 07:03:00,56.3,56.0,29.45,SSW,201,6.0,14.0,99,0.01,RA,,0.75,WeatherDisplay:10.37,2013-11-27 12:03:00,
2013-11-27 07:13:00,57.3,57.0,29.45,SSW,195,6.0,18.0,99,0.05,RA,,0.80,WeatherDisplay:10.37,2013-11-27 12:13:00,
2013-11-27 07:23:00,57.9,57.6,29.44,South,190,8.0,16.0,99,0.04,RA,,0.84,WeatherDisplay:10.37,2013-11-27 12:23:00,
2013-11-27 07:33:00,58.3,58.0,29.42,South,176,5.0,18.0,99,0.01,RA,,0.85,WeatherDisplay:10.37,2013-11-27 12:33:00,
2013-11-27 07:43:00,58.4,58.1,29.42,SSW,202,5.0,18.0,99,0.02, +RA,,0.87,WeatherDisplay:10.37,2013-11-27 12:43:00,
2013-11-27 07:53:00,58.9,58.6,29.42,SSW,194,5.0,20.0,99,0.06,RA,,0.93,WeatherDisplay:10.37,2013-11-27 12:53:00,
2013-11-27 08:03:00,59.3,59.0,29.41,SSW,208,3.0,20.0,99,0.04, +RA,,0.97,WeatherDisplay:10.37,2013-11-27 13:03:00,
2013-11-27 08:13:00,59.7,59.4,29.41,SSW,208,6.0,16.0,99,0.09, +RA,,1.06,WeatherDisplay:10.37,2013-11-27 13:13:00,
2013-11-27 08:23:00,59.8,59.5,29.40,SSW,194,6.0,21.0,99,0.05, +RA,,1.11,WeatherDisplay:10.37,2013-11-27 13:23:00,
2013-11-27 08:33:00,59.8,59.5,29.39,SSW,204,2.0,13.0,99,0.05, +RA,,1.16,WeatherDisplay:10.37,2013-11-27 13:33:00,
2013-11-27 08:43:00,60.1,59.8,29.39,SW,226,8.0,20.0,99,0.04, +RA,,1.20,WeatherDisplay:10.37,2013-11-27 13:43:00,
2013-11-27 08:53:00,60.4,60.1,29.39,SW,219,5.0,20.0,99,0.02,RA,,1.22,WeatherDisplay:10.37,2013-11-27 13:53:00,
2013-11-27 09:03:00,60.6,60.3,29.38,SSW,200,5.0,16.0,99,0.01,RA,,1.23,WeatherDisplay:10.37,2013-11-27 14:03:00,
2013-11-27 09:13:00,60.6,60.3,29.38,SW,218,6.0,17.0,99,0.01,RA,,1.24,WeatherDisplay:10.37,2013-11-27 14:13:00,
2013-11-27 09:23:00,60.8,60.5,29.38,SW,222,5.0,17.0,99,0.01,RA,,1.25,WeatherDisplay:10.37,2013-11-27 14:23:00,
2013-11-27 09:33:00,60.9,60.6,29.36,SSW,209,7.0,15.0,99,0.00,-RA,,1.25,WeatherDisplay:10.37,2013-11-27 14:33:00,
2013-11-27 09:43:00,60.9,60.6,29.36,SW,217,3.0,16.0,99,0.01,-RA,,1.26,WeatherDisplay:10.37,2013-11-27 14:43:00,
2013-11-27 09:53:00,61.1,60.8,29.36,SW,215,6.0,18.0,99,0.01,-RA,,1.27,WeatherDisplay:10.37,2013-11-27 14:53:00,
2013-11-27 10:03:00,61.2,60.9,29.35,WSW,248,2.0,15.0,99,0.00,-RA,,1.27,WeatherDisplay:10.37,2013-11-27 15:03:00,
2013-11-27 10:13:00,61.2,60.9,29.35,SSW,212,1.0,16.0,99,0.00,-RA,,1.27,WeatherDisplay:10.37,2013-11-27 15:13:00,
2013-11-27 10:23:00,61.2,60.9,29.34,SW,222,3.0,17.0,99,0.00,-RA,,1.27,WeatherDisplay:10.37,2013-11-27 15:23:00,
2013-11-27 10:33:00,61.1,60.8,29.34,SW,230,2.0,12.0,99,0.00,-RA,,1.27,WeatherDisplay:10.37,2013-11-27 15:33:00,
2013-11-27 10:43:00,61.1,60.8,29.34,SW,227,1.0,5.0,99,0.00,-RA,,1.27,WeatherDisplay:10.37,2013-11-27 15:43:00,
2013-11-27 10:53:00,60.9,60.6,29.33,WSW,246,1.0,7.0,99,0.01,-RA,,1.28,WeatherDisplay:10.37,2013-11-27 15:53:00,
2013-11-27 11:03:00,60.9,60.6,29.33,WSW,241,0.0,6.0,99,0.01,-RA,,1.29,WeatherDisplay:10.37,2013-11-27 16:03:00,
2013-11-27 11:13:00,60.9,60.6,29.33,SSW,212,1.0,6.0,99,0.02,RA,,1.31,WeatherDisplay:10.37,2013-11-27 16:13:00,
2013-11-27 11:23:00,60.9,60.6,29.31,SW,215,1.0,7.0,99,0.02,RA,,1.33,WeatherDisplay:10.37,2013-11-27 16:23:00,
2013-11-27 11:33:00,60.9,60.6,29.31,WSW,241,1.0,4.0,99,0.03,RA,,1.36,WeatherDisplay:10.37,2013-11-27 16:33:00,
2013-11-27 11:43:00,60.8,60.5,29.31,WSW,254,0.0,2.0,99,0.02,RA,,1.38,WeatherDisplay:10.37,2013-11-27 16:43:00,
2013-11-27 11:53:00,60.8,60.5,29.30,SW,221,2.0,5.0,99,0.02,RA,,1.40,WeatherDisplay:10.37,2013-11-27 16:53:00,
2013-11-27 12:03:00,60.8,60.5,29.29,SSW,200,0.0,6.0,99,0.02,-RA,,1.42,WeatherDisplay:10.37,2013-11-27 17:03:00,
2013-11-27 12:13:00,60.8,60.5,29.29,SW,214,2.0,9.0,99,0.00,-RA,,1.42,WeatherDisplay:10.37,2013-11-27 17:13:00,
2013-11-27 12:23:00,60.6,60.3,29.28,SW,231,0.0,4.0,99,0.01,-RA,,1.43,WeatherDisplay:10.37,2013-11-27 17:23:00,
2013-11-27 12:33:00,60.6,60.3,29.26,SSW,212,1.0,6.0,99,0.01,-RA,,1.44,WeatherDisplay:10.37,2013-11-27 17:33:00,
2013-11-27 12:43:00,60.4,60.1,29.26,SSE,165,0.0,5.0,99,0.01,-RA,,1.45,WeatherDisplay:10.37,2013-11-27 17:43:00,
2013-11-27 12:53:00,60.4,60.1,29.25,SSE,147,0.0,4.0,99,0.01,-RA,,1.46,WeatherDisplay:10.37,2013-11-27 17:53:00,
2013-11-27 13:03:00,60.3,60.0,29.27,SSW,198,0.0,5.0,99,0.00,-RA,,1.46,WeatherDisplay:10.37,2013-11-27 18:03:00,
2013-11-27 13:13:00,60.1,59.8,29.27,SW,219,1.0,2.0,99,0.02,-RA,,1.48,WeatherDisplay:10.37,2013-11-27 18:13:00,
2013-11-27 13:23:00,60.3,60.0,29.25,SSW,195,1.0,4.0,99,0.01,-RA,,1.49,WeatherDisplay:10.37,2013-11-27 18:23:00,
2013-11-27 13:33:00,60.3,60.0,29.23,South,190,0.0,3.0,99,0.01,RA,,1.50,WeatherDisplay:10.37,2013-11-27 18:33:00,
2013-11-27 13:43:00,59.4,59.1,29.23,WSW,246,5.0,13.0,99,0.00,OVC,,1.50,WeatherDisplay:10.37,2013-11-27 18:43:00,
2013-11-27 13:53:00,55.8,55.5,29.25,West,275,5.0,12.0,99,0.01,-RA,,1.51,WeatherDisplay:10.37,2013-11-27 18:53:00,
2013-11-27 14:03:00,54.0,53.8,29.23,WNW,286,7.0,16.0,99,0.00,-RA,,1.51,WeatherDisplay:10.37,2013-11-27 19:03:00,
2013-11-27 14:13:00,53.0,52.7,29.23,West,276,5.0,12.0,99,0.00,-RA,,1.51,WeatherDisplay:10.37,2013-11-27 19:13:00,
2013-11-27 14:23:00,51.3,50.7,29.25,West,274,10.0,18.0,98,0.00,-RA,,1.51,WeatherDisplay:10.37,2013-11-27 19:23:00,
2013-11-27 14:33:00,49.4,48.6,29.27,WNW,291,8.0,14.0,97,0.00,-RA,,1.51,WeatherDisplay:10.37,2013-11-27 19:33:00,
2013-11-27 14:43:00,48.6,47.8,29.27,WNW,285,6.0,12.0,97,0.01,RA,,1.52,WeatherDisplay:10.37,2013-11-27 19:43:00,
2013-11-27 14:53:00,48.2,47.4,29.26,WNW,303,5.0,13.0,97,0.00,OVC,,1.52,WeatherDisplay:10.37,2013-11-27 19:53:00,
2013-11-27 15:03:00,47.7,46.9,29.26,West,279,3.0,12.0,97,0.01,RA,,1.53,WeatherDisplay:10.37,2013-11-27 20:03:00,
2013-11-27 15:13:00,47.3,46.5,29.26,West,277,5.0,12.0,97,0.00,-RA,,1.53,WeatherDisplay:10.37,2013-11-27 20:13:00,
2013-11-27 15:23:00,46.8,46.0,29.26,WNW,282,3.0,14.0,97,0.01,-RA,,1.54,WeatherDisplay:10.37,2013-11-27 20:23:00,
2013-11-27 15:33:00,46.5,45.7,29.26,WNW,287,3.0,9.0,97,0.00,-RA,,1.54,WeatherDisplay:10.37,2013-11-27 20:33:00,
2013-11-27 15:43:00,45.9,45.1,29.26,West,280,3.0,12.0,97,0.00,-RA,,1.54,WeatherDisplay:10.37,2013-11-27 20:43:00,
2013-11-27 15:53:00,45.3,44.5,29.27,WNW,287,2.0,10.0,97,0.00,-RA,,1.54,WeatherDisplay:10.37,2013-11-27 20:53:00,
2013-11-27 16:03:00,45.0,44.2,29.25,West,269,1.0,7.0,97,0.00,-RA,,1.54,WeatherDisplay:10.37,2013-11-27 21:03:00,
2013-11-27 16:13:00,44.8,44.0,29.25,WNW,292,2.0,7.0,97,0.00,-RA,,1.54,WeatherDisplay:10.37,2013-11-27 21:13:00,
2013-11-27 16:23:00,44.3,43.2,29.26,WNW,290,5.0,9.0,96,0.00,-RA,,1.54,WeatherDisplay:10.37,2013-11-27 21:23:00,
2013-11-27 16:33:00,44.1,43.0,29.26,WNW,282,6.0,9.0,96,0.00,OVC,,1.54,WeatherDisplay:10.37,2013-11-27 21:33:00,
2013-11-27 16:43:00,43.9,42.8,29.26,WNW,287,3.0,12.0,96,0.00,-RA,,1.54,WeatherDisplay:10.37,2013-11-27 21:43:00,
2013-11-27 16:53:00,43.3,42.2,29.25,WNW,294,6.0,12.0,96,0.00,-RA,,1.54,WeatherDisplay:10.37,2013-11-27 21:53:00,
2013-11-27 17:03:00,42.9,41.8,29.26,WNW,286,5.0,12.0,96,0.00,-RA,,1.54,WeatherDisplay:10.37,2013-11-27 22:03:00,
2013-11-27 17:13:00,42.6,41.3,29.26,NW,316,3.0,10.0,95,0.00,-RA,,1.54,WeatherDisplay:10.37,2013-11-27 22:13:00,
2013-11-27 17:23:00,42.3,41.0,29.25,NW,308,2.0,7.0,95,0.01,-RA,,1.55,WeatherDisplay:10.37,2013-11-27 22:23:00,
2013-11-27 17:33:00,42.0,40.7,29.25,NW,306,3.0,10.0,95,0.00,-RA,,1.55,WeatherDisplay:10.37,2013-11-27 22:33:00,
2013-11-27 17:43:00,41.6,40.3,29.25,West,278,5.0,10.0,95,0.00,-RA,,1.55,WeatherDisplay:10.37,2013-11-27 22:43:00,
2013-11-27 17:53:00,41.1,39.8,29.26,West,272,5.0,13.0,95,0.02,-RA,,1.57,WeatherDisplay:10.37,2013-11-27 22:53:00,
2013-11-27 18:03:00,40.9,39.6,29.27,WNW,288,5.0,10.0,95,0.01,-RA,,1.58,WeatherDisplay:10.37,2013-11-27 23:03:00,
2013-11-27 18:13:00,40.8,39.8,29.27,WNW,283,1.0,5.0,96,0.01,RA,,1.59,WeatherDisplay:10.37,2013-11-27 23:13:00,
2013-11-27 18:23:00,40.6,39.5,29.27,West,278,2.0,12.0,96,0.00,OVC,,1.59,WeatherDisplay:10.37,2013-11-27 23:23:00,
2013-11-27 18:33:00,40.0,39.0,29.27,WNW,290,5.0,13.0,96,0.01,RA,,1.60,WeatherDisplay:10.37,2013-11-27 23:33:00,
2013-11-27 18:43:00,39.7,38.7,29.27,NW,308,6.0,13.0,96,0.01,RA,,1.61,WeatherDisplay:10.37,2013-11-27 23:43:00,
2013-11-27 18:53:00,39.4,38.0,29.25,WNW,303,6.0,17.0,95,0.00,OVC,,1.61,WeatherDisplay:10.37,2013-11-27 23:53:00,
2013-11-27 19:03:00,39.1,37.8,29.28,WNW,282,6.0,14.0,95,0.00,OVC,,1.61,WeatherDisplay:10.37,2013-11-28 00:03:00,
2013-11-27 19:13:00,38.9,37.6,29.28,WNW,283,3.0,15.0,95,0.00,-RA,,1.61,WeatherDisplay:10.37,2013-11-28 00:13:00,
2013-11-27 19:23:00,38.4,37.1,29.29,WNW,291,7.0,14.0,95,0.00,-RA,,1.61,WeatherDisplay:10.37,2013-11-28 00:23:00,
2013-11-27 19:33:00,38.1,36.5,29.30,West,280,3.0,14.0,94,0.00,-RA,,1.61,WeatherDisplay:10.37,2013-11-28 00:33:00,
2013-11-27 19:43:00,37.7,36.1,29.30,WNW,291,6.0,16.0,94,0.01,-RA,,1.62,WeatherDisplay:10.37,2013-11-28 00:43:00,
2013-11-27 19:53:00,37.3,35.7,29.31,West,273,9.0,20.0,94,0.02,-RA,,1.64,WeatherDisplay:10.37,2013-11-28 00:53:00,
2013-11-27 20:03:00,36.8,35.2,29.33,WNW,292,8.0,16.0,94,0.00,-RA,,1.64,WeatherDisplay:10.37,2013-11-28 01:03:00,
2013-11-27 20:13:00,36.6,35.0,29.33,WNW,288,8.0,17.0,94,0.01,-RA,,1.65,WeatherDisplay:10.37,2013-11-28 01:13:00,
2013-11-27 20:23:00,36.4,34.8,29.33,WNW,284,7.0,17.0,94,0.00,-RA,,1.65,WeatherDisplay:10.37,2013-11-28 01:23:00,
2013-11-27 20:33:00,36.0,34.2,29.35,West,273,9.0,22.0,93,0.00,-RA,,1.65,WeatherDisplay:10.37,2013-11-28 01:33:00,
2013-11-27 20:43:00,35.6,32.7,29.35,West,279,8.0,17.0,89,0.00,-RA,,1.65,WeatherDisplay:10.37,2013-11-28 01:43:00,
2013-11-27 20:53:00,35.3,32.9,29.34,WNW,300,7.0,20.0,91,0.00,-RA,,1.65,WeatherDisplay:10.37,2013-11-28 01:53:00,
2013-11-27 21:03:00,35.1,32.5,29.35,WNW,294,8.0,20.0,90,0.00,BKN,,1.65,WeatherDisplay:10.37,2013-11-28 02:03:00,
2013-11-27 21:13:00,35.0,32.1,29.35,WNW,282,14.0,20.0,89,0.00,BKN,,1.65,WeatherDisplay:10.37,2013-11-28 02:13:00,
2013-11-27 21:23:00,35.0,32.1,29.35,WNW,295,9.0,18.0,89,0.00,BKN,,1.65,WeatherDisplay:10.37,2013-11-28 02:23:00,
2013-11-27 21:33:00,34.8,31.9,29.36,WNW,297,5.0,20.0,89,0.00,BKN,,1.65,WeatherDisplay:10.37,2013-11-28 02:33:00,
2013-11-27 21:43:00,34.6,31.7,29.36,West,279,7.0,16.0,89,0.00,BKN,,1.65,WeatherDisplay:10.37,2013-11-28 02:43:00,
2013-11-27 21:53:00,34.4,31.8,29.36,West,272,6.0,18.0,90,0.00,BKN,,1.65,WeatherDisplay:10.37,2013-11-28 02:53:00,
2013-11-27 22:03:00,34.1,31.5,29.37,WNW,292,2.0,15.0,90,0.00,OVC,,1.65,WeatherDisplay:10.37,2013-11-28 03:03:00,
2013-11-27 22:13:00,33.9,31.6,29.37,West,275,5.0,18.0,91,0.00,BKN,,1.65,WeatherDisplay:10.37,2013-11-28 03:13:00,
2013-11-27 22:23:00,33.6,31.0,29.37,West,264,7.0,17.0,90,0.00,BKN,,1.65,WeatherDisplay:10.37,2013-11-28 03:23:00,
2013-11-27 22:33:00,33.2,30.6,29.40,West,272,5.0,14.0,90,0.00,SCT,,1.65,WeatherDisplay:10.37,2013-11-28 03:33:00,
2013-11-27 22:43:00,33.2,30.3,29.40,West,260,5.0,17.0,89,0.00,SCT,,1.65,WeatherDisplay:10.37,2013-11-28 03:43:00,
2013-11-27 22:53:00,33.2,30.0,29.40,WNW,288,3.0,12.0,88,0.00,SCT,,1.65,WeatherDisplay:10.37,2013-11-28 03:53:00,
2013-11-27 23:03:00,33.4,29.7,29.40,West,267,5.0,13.0,86,0.00,SCT,,1.65,WeatherDisplay:10.37,2013-11-28 04:03:00,
2013-11-27 23:13:00,33.5,29.8,29.40,WNW,288,5.0,12.0,86,0.00,SCT,,1.65,WeatherDisplay:10.37,2013-11-28 04:13:00,
2013-11-27 23:23:00,33.5,29.5,29.41,West,262,5.0,12.0,85,0.00,BKN,,1.65,WeatherDisplay:10.37,2013-11-28 04:23:00,
2013-11-27 23:33:00,33.2,29.2,29.44,West,269,6.0,14.0,85,0.00,BKN,,1.65,WeatherDisplay:10.37,2013-11-28 04:33:00,
2013-11-27 23:43:00,33.2,28.9,29.44,West,277,5.0,17.0,84,0.00,BKN,,1.65,WeatherDisplay:10.37,2013-11-28 04:43:00,
2013-11-27 23:53:00,33.1,28.5,29.46,West,274,6.0,12.0,83,0.00,BKN,,1.65,WeatherDisplay:10.37,2013-11-28 04:53:00,